createdAt,value
2023-03-26T00:01:23.909Z,92.25
2023-03-26T00:03:55.330Z,92.14
2023-03-26T00:06:37.629Z,92.13
2023-03-26T00:09:08.222Z,91.31
2023-03-26T00:11:35.945Z,92.32
2023-03-26T00:14:03.793Z,91.02
2023-03-26T00:16:32.118Z,91.05
2023-03-26T00:19:00.202Z,90.83
2023-03-26T00:21:30.277Z,91.04
2023-03-26T00:24:01.207Z,91.78
2023-03-26T00:26:31.183Z,92.18
2023-03-26T00:29:00.321Z,93.57
2023-03-26T00:31:27.980Z,92.71
2023-03-26T00:33:55.780Z,92.56
2023-03-26T00:36:27.745Z,92.71
2023-03-26T00:38:55.520Z,93.30
2023-03-26T00:41:26.113Z,92.39
2023-03-26T00:43:57.928Z,91.81
2023-03-26T00:46:26.941Z,92.08
2023-03-26T00:48:58.792Z,92.27
2023-03-26T00:51:27.837Z,92.98
2023-03-26T00:53:55.696Z,93.33
2023-03-26T00:56:23.060Z,93.33
2023-03-26T00:58:50.588Z,93.16
2023-03-26T01:01:27.324Z,93.46
2023-03-26T01:04:08.266Z,92.81
2023-03-26T01:06:41.515Z,92.36
2023-03-26T01:09:17.728Z,93.34
2023-03-26T01:11:46.609Z,93.31
2023-03-26T01:14:19.626Z,92.55
2023-03-26T01:16:56.304Z,92.12
2023-03-26T01:19:49.003Z,91.89
2023-03-26T01:22:19.552Z,92.69
2023-03-26T01:24:53.071Z,93.27
2023-03-26T01:27:33.696Z,93.34
2023-03-26T01:30:29.305Z,93.96
2023-03-26T01:33:43.968Z,94.11
2023-03-26T01:36:23.683Z,94.24
2023-03-26T01:39:22.087Z,94.15
2023-03-26T01:41:51.724Z,93.90
2023-03-26T01:44:42.924Z,93.74
2023-03-26T01:47:11.122Z,92.86
2023-03-26T01:49:38.670Z,92.48
2023-03-26T01:52:20.859Z,93.66
2023-03-26T01:54:48.831Z,93.07
2023-03-26T01:57:37.894Z,92.86
2023-03-26T02:00:15.513Z,93.09
2023-03-26T02:03:01.357Z,93.44
2023-03-26T02:05:33.586Z,92.35
2023-03-26T02:08:21.131Z,92.84
2023-03-26T02:10:57.565Z,92.21
2023-03-26T02:13:25.896Z,92.47
2023-03-26T02:16:01.743Z,93.19
2023-03-26T02:18:41.468Z,92.22
2023-03-26T02:21:22.741Z,92.24
2023-03-26T02:23:58.111Z,91.91
2023-03-26T02:26:25.898Z,92.53
2023-03-26T02:28:53.662Z,92.28
2023-03-26T02:31:21.956Z,92.90
2023-03-26T02:33:49.616Z,92.67
2023-03-26T02:36:19.631Z,93.14
2023-03-26T02:38:47.974Z,93.60
2023-03-26T02:41:15.426Z,93.87
2023-03-26T02:43:44.671Z,93.75
2023-03-26T02:46:13.418Z,93.59
2023-03-26T02:48:44.058Z,93.65
2023-03-26T02:51:11.892Z,95.30
2023-03-26T02:53:41.431Z,97.00
2023-03-26T02:56:11.056Z,95.13
2023-03-26T02:58:39.735Z,96.13
2023-03-26T03:01:08.051Z,96.45
2023-03-26T03:03:36.468Z,97.88
2023-03-26T03:06:05.392Z,98.96
2023-03-26T03:08:34.153Z,100.00
2023-03-26T03:11:10.462Z,100.00
2023-03-26T03:13:38.238Z,100.00
2023-03-26T03:16:05.969Z,100.00
2023-03-26T03:18:33.280Z,100.00
2023-03-26T03:21:01.461Z,100.00
2023-03-26T03:23:28.934Z,100.00
2023-03-26T03:25:58.004Z,100.00
2023-03-26T03:28:25.808Z,100.00
2023-03-26T03:30:53.409Z,100.00
2023-03-26T03:33:21.459Z,100.00
2023-03-26T03:35:50.204Z,99.53
2023-03-26T03:38:17.989Z,100.00
2023-03-26T03:40:46.429Z,100.00
2023-03-26T03:43:14.295Z,99.10
2023-03-26T03:45:42.169Z,98.90
2023-03-26T03:48:09.623Z,99.30
2023-03-26T03:50:37.587Z,100.00
2023-03-26T03:53:05.828Z,100.00
2023-03-26T03:55:34.445Z,100.00
2023-03-26T03:58:02.079Z,100.00
2023-03-26T04:00:30.752Z,100.00
2023-03-26T04:02:59.202Z,100.00
2023-03-26T04:05:26.945Z,100.00
2023-03-26T04:07:54.087Z,100.00
2023-03-26T04:10:23.769Z,100.00
2023-03-26T04:12:54.272Z,100.00
2023-03-26T04:15:22.071Z,100.00
2023-03-26T04:17:49.616Z,100.00
2023-03-26T04:20:17.286Z,100.00
2023-03-26T04:22:44.631Z,100.00
2023-03-26T04:25:13.454Z,100.00
2023-03-26T04:27:44.144Z,100.00
2023-03-26T04:30:15.762Z,100.00
2023-03-26T04:32:44.823Z,100.00
2023-03-26T04:35:16.707Z,100.00
2023-03-26T04:37:46.186Z,100.00
2023-03-26T04:40:21.992Z,100.00
2023-03-26T04:42:49.617Z,100.00
2023-03-26T04:45:22.729Z,100.00
2023-03-26T04:47:53.009Z,100.00
2023-03-26T04:50:21.031Z,100.00
2023-03-26T04:52:48.313Z,100.00
2023-03-26T04:55:28.281Z,100.00
2023-03-26T04:58:00.204Z,100.00
2023-03-26T05:00:29.177Z,100.00
2023-03-26T05:03:01.698Z,100.00
2023-03-26T05:05:29.407Z,100.00
2023-03-26T05:07:57.923Z,100.00
2023-03-26T05:10:25.418Z,100.00
2023-03-26T05:12:53.009Z,100.00
2023-03-26T05:15:21.719Z,100.00
2023-03-26T05:17:50.238Z,100.00
2023-03-26T05:20:20.866Z,100.00
2023-03-26T05:22:49.619Z,100.00
2023-03-26T05:25:17.871Z,100.00
2023-03-26T05:27:45.996Z,100.00
2023-03-26T05:30:16.190Z,98.67
2023-03-26T05:32:44.185Z,97.57
2023-03-26T05:35:12.718Z,98.21
2023-03-26T05:37:40.599Z,98.26
2023-03-26T05:40:11.773Z,96.38
2023-03-26T05:42:41.811Z,97.55
2023-03-26T05:45:11.745Z,97.38
2023-03-26T05:47:39.075Z,94.87
2023-03-26T05:50:07.853Z,91.93
2023-03-26T05:52:36.027Z,91.44
2023-03-26T05:55:08.337Z,90.46
2023-03-26T05:57:47.699Z,88.90
2023-03-26T06:00:18.571Z,88.27
2023-03-26T06:02:46.975Z,89.95
2023-03-26T06:05:16.965Z,88.90
2023-03-26T06:07:44.975Z,87.76
2023-03-26T06:10:18.012Z,89.89
2023-03-26T06:12:46.424Z,89.78
2023-03-26T06:15:13.742Z,88.45
2023-03-26T06:17:41.169Z,88.30
2023-03-26T06:20:10.528Z,87.06
2023-03-26T06:22:38.066Z,88.00
2023-03-26T06:25:08.254Z,86.65
2023-03-26T06:27:36.312Z,82.97
2023-03-26T06:30:04.348Z,68.50
2023-03-26T06:32:32.616Z,54.74
2023-03-26T06:35:00.882Z,47.98
2023-03-26T06:37:28.473Z,43.70
2023-03-26T06:39:56.260Z,39.95
2023-03-26T06:42:32.056Z,39.32
2023-03-26T06:45:11.607Z,37.41
2023-03-26T06:47:44.388Z,37.15
2023-03-26T06:50:13.271Z,35.72
2023-03-26T06:52:43.028Z,38.83
2023-03-26T06:55:11.129Z,38.34
2023-03-26T06:57:39.277Z,37.29
2023-03-26T07:00:08.867Z,41.87
2023-03-26T07:02:40.651Z,43.08
2023-03-26T07:05:22.844Z,49.86
2023-03-26T07:08:00.715Z,49.38
2023-03-26T07:10:45.009Z,47.95
2023-03-26T07:13:12.854Z,44.90
2023-03-26T07:15:49.111Z,44.98
2023-03-26T07:18:16.661Z,41.36
2023-03-26T07:20:46.164Z,41.86
2023-03-26T07:23:15.655Z,42.83
2023-03-26T07:25:43.733Z,44.18
2023-03-26T07:28:12.376Z,43.68
2023-03-26T07:31:07.513Z,43.13
2023-03-26T07:33:48.852Z,43.03
2023-03-26T07:36:23.548Z,43.34
2023-03-26T07:39:13.044Z,44.26
2023-03-26T07:41:46.468Z,46.92
2023-03-26T07:44:26.028Z,46.54
2023-03-26T07:46:54.070Z,47.30
2023-03-26T07:49:22.394Z,49.01
2023-03-26T07:51:54.277Z,50.63
2023-03-26T07:54:22.163Z,53.08
2023-03-26T07:56:58.592Z,53.44
2023-03-26T07:59:49.281Z,54.73
2023-03-26T08:02:45.090Z,52.97
2023-03-26T08:05:39.908Z,51.43
2023-03-26T08:08:46.509Z,51.29
2023-03-26T08:11:56.064Z,53.96
2023-03-26T08:14:26.386Z,52.91
2023-03-26T08:17:09.161Z,51.72
2023-03-26T08:19:40.921Z,53.31
2023-03-26T08:22:15.604Z,53.34
2023-03-26T08:25:04.667Z,54.50
2023-03-26T08:27:38.742Z,55.61
2023-03-26T08:30:08.974Z,53.38
2023-03-26T08:32:36.628Z,51.26
2023-03-26T08:35:05.089Z,51.22
2023-03-26T08:37:32.407Z,48.69
2023-03-26T08:40:19.877Z,46.78
2023-03-26T08:43:10.582Z,46.29
2023-03-26T08:45:51.450Z,44.67
2023-03-26T08:48:37.562Z,43.96
2023-03-26T08:51:15.356Z,45.09
2023-03-26T08:53:50.031Z,42.14
2023-03-26T08:56:41.728Z,42.37
2023-03-26T08:59:28.166Z,41.80
2023-03-26T09:02:05.737Z,40.11
2023-03-26T09:05:11.266Z,40.69
2023-03-26T09:08:30.136Z,41.26
2023-03-26T09:11:04.618Z,41.15
2023-03-26T09:13:53.519Z,42.48
2023-03-26T09:16:27.387Z,44.07
2023-03-26T09:19:19.851Z,44.05
2023-03-26T09:21:47.581Z,43.75
2023-03-26T09:24:27.801Z,43.68
2023-03-26T09:27:26.155Z,42.06
2023-03-26T09:30:06.852Z,41.25
2023-03-26T09:32:43.335Z,39.30
2023-03-26T09:35:24.910Z,40.52
2023-03-26T09:37:57.108Z,40.30
2023-03-26T09:40:51.239Z,42.09
2023-03-26T09:43:36.304Z,41.15
2023-03-26T09:46:06.804Z,38.86
2023-03-26T09:48:37.721Z,41.99
2023-03-26T09:51:26.131Z,40.03
2023-03-26T09:54:14.651Z,39.05
2023-03-26T09:56:58.148Z,40.78
2023-03-26T09:59:28.885Z,43.30
2023-03-26T10:02:18.524Z,42.28
2023-03-26T10:05:08.289Z,43.25
2023-03-26T10:07:56.314Z,44.51
2023-03-26T10:10:49.159Z,44.39
2023-03-26T10:13:54.130Z,46.31
2023-03-26T10:16:29.881Z,48.02
2023-03-26T10:19:16.819Z,47.81
2023-03-26T10:22:11.150Z,46.66
2023-03-26T10:24:58.202Z,46.74
2023-03-26T10:27:49.477Z,46.56
2023-03-26T10:30:25.948Z,43.61
2023-03-26T10:32:58.064Z,42.89
2023-03-26T10:35:56.610Z,40.77
2023-03-26T10:39:02.941Z,42.27
2023-03-26T10:41:51.052Z,41.21
2023-03-26T10:44:24.969Z,40.38
2023-03-26T10:47:10.562Z,40.31
2023-03-26T10:49:50.122Z,40.52
2023-03-26T10:52:26.004Z,39.61
2023-03-26T10:55:23.591Z,39.65
2023-03-26T10:58:03.626Z,39.36
2023-03-26T11:00:40.277Z,39.69
2023-03-26T11:03:27.863Z,41.71
2023-03-26T11:06:08.142Z,41.09
2023-03-26T11:08:59.765Z,40.21
2023-03-26T11:11:34.035Z,39.27
2023-03-26T11:14:10.812Z,39.54
2023-03-26T11:16:45.704Z,38.55
2023-03-26T11:19:22.623Z,39.47
2023-03-26T11:21:56.790Z,39.07
2023-03-26T11:24:47.034Z,39.00
2023-03-26T11:27:22.625Z,40.36
2023-03-26T11:30:15.998Z,38.05
2023-03-26T11:32:46.758Z,38.75
2023-03-26T11:35:46.326Z,38.93
2023-03-26T11:38:29.086Z,38.92
2023-03-26T11:40:59.122Z,40.00
2023-03-26T11:43:33.677Z,37.62
2023-03-26T11:46:03.731Z,37.75
2023-03-26T11:48:38.124Z,37.88
2023-03-26T11:51:12.047Z,39.09
2023-03-26T11:53:49.353Z,36.81
2023-03-26T11:57:05.148Z,36.21
2023-03-26T11:59:55.448Z,37.06
2023-03-26T12:02:36.149Z,35.29
2023-03-26T12:05:21.112Z,36.30
2023-03-26T12:07:54.701Z,35.58
2023-03-26T12:10:25.739Z,35.60
2023-03-26T12:12:56.624Z,34.35
2023-03-26T12:15:25.014Z,35.58
2023-03-26T12:17:56.647Z,34.07
2023-03-26T12:20:27.625Z,34.71
2023-03-26T12:23:03.521Z,34.49
2023-03-26T12:25:39.145Z,34.52
2023-03-26T12:28:16.294Z,33.08
2023-03-26T12:31:19.413Z,32.77
2023-03-26T12:34:35.001Z,32.78
2023-03-26T12:37:05.598Z,32.80
2023-03-26T12:40:11.790Z,31.27
2023-03-26T12:44:49.204Z,30.91
2023-03-26T12:47:54.133Z,31.08
2023-03-26T12:48:38.180Z,33.75
2023-03-26T12:51:23.834Z,36.13
2023-03-26T12:54:23.775Z,36.54
2023-03-26T12:57:13.696Z,35.97
2023-03-26T13:00:20.096Z,34.80
2023-03-26T13:02:59.140Z,35.30
2023-03-26T13:05:36.804Z,35.78
2023-03-26T13:08:15.939Z,34.80
2023-03-26T13:11:17.536Z,35.87
2023-03-26T13:13:56.447Z,35.41
2023-03-26T13:16:24.101Z,35.13
2023-03-26T13:18:57.954Z,33.94
2023-03-26T13:21:46.153Z,34.21
2023-03-26T13:24:38.697Z,34.54
2023-03-26T13:27:36.373Z,34.57
2023-03-26T13:30:31.433Z,33.83
2023-03-26T13:33:11.290Z,34.49
2023-03-26T13:36:23.163Z,34.02
2023-03-26T13:38:58.792Z,33.04
2023-03-26T13:41:34.221Z,33.67
2023-03-26T13:44:17.753Z,32.55
2023-03-26T13:46:48.960Z,32.88
2023-03-26T13:49:33.846Z,31.51
2023-03-26T13:52:10.920Z,32.02
2023-03-26T13:54:52.358Z,32.30
2023-03-26T14:01:08.253Z,31.67
2023-03-26T14:03:53.365Z,32.08
2023-03-26T14:06:42.508Z,32.71
2023-03-26T14:09:18.180Z,32.17
2023-03-26T14:11:58.270Z,32.92
2023-03-26T14:14:31.640Z,33.18
2023-03-26T14:17:05.403Z,34.11
2023-03-26T14:20:10.063Z,32.45
2023-03-26T14:22:53.018Z,31.09
2023-03-26T14:25:32.599Z,30.20
2023-03-26T14:28:24.418Z,31.08
2023-03-26T14:31:04.062Z,31.05
2023-03-26T14:33:34.242Z,31.73
2023-03-26T14:36:13.734Z,30.76
2023-03-26T14:38:48.108Z,31.91
2023-03-26T14:41:22.534Z,32.45
2023-03-26T14:44:21.138Z,32.51
2023-03-26T14:47:17.243Z,32.96
2023-03-26T14:53:45.075Z,33.08
2023-03-26T14:56:52.033Z,32.60
2023-03-26T14:59:47.872Z,32.92
2023-03-26T15:02:37.378Z,33.11
2023-03-26T15:05:27.184Z,33.15
2023-03-26T15:08:39.006Z,33.84
2023-03-26T15:11:47.263Z,34.25
2023-03-26T15:14:41.774Z,34.01
2023-03-26T15:18:00.487Z,33.66
2023-03-26T15:20:52.627Z,33.70
2023-03-26T15:23:38.863Z,32.65
2023-03-26T15:26:27.884Z,32.10
2023-03-26T15:29:43.190Z,32.71
2023-03-26T15:32:40.800Z,34.06
2023-03-26T15:35:37.113Z,34.30
2023-03-26T15:38:12.415Z,34.90
2023-03-26T15:41:05.285Z,34.97
2023-03-26T15:46:55.359Z,36.56
2023-03-26T15:49:23.041Z,36.34
2023-03-26T15:52:13.214Z,36.55
2023-03-26T15:55:19.116Z,37.29
2023-03-26T15:58:01.785Z,37.66
2023-03-26T16:00:34.739Z,37.86
2023-03-26T16:03:10.930Z,37.87
2023-03-26T16:06:23.911Z,38.60
2023-03-26T16:09:23.780Z,38.43
2023-03-26T16:11:58.816Z,39.03
2023-03-26T16:14:36.943Z,39.45
2023-03-26T16:17:08.278Z,39.44
2023-03-26T16:20:13.807Z,39.93
2023-03-26T16:22:55.658Z,40.44
2023-03-26T16:26:00.121Z,40.91
2023-03-26T16:28:49.115Z,41.72
2023-03-26T16:31:38.239Z,41.87
2023-03-26T16:34:09.996Z,41.65
2023-03-26T16:36:43.491Z,42.27
2023-03-26T16:39:23.148Z,42.42
2023-03-26T16:42:06.362Z,42.17
2023-03-26T16:44:44.249Z,42.79
2023-03-26T16:47:25.166Z,43.24
2023-03-26T16:50:30.501Z,43.28
2023-03-26T16:53:33.190Z,43.81
2023-03-26T16:56:04.976Z,44.60
2023-03-26T16:58:40.193Z,45.34
2023-03-26T17:01:10.198Z,45.56
2023-03-26T17:03:46.395Z,45.63
2023-03-26T17:06:30.097Z,46.45
2023-03-26T17:09:21.046Z,46.48
2023-03-26T17:12:00.153Z,46.78
2023-03-26T17:14:49.535Z,47.30
2023-03-26T17:17:39.729Z,47.13
2023-03-26T17:20:33.967Z,47.34
2023-03-26T17:23:29.836Z,47.69
2023-03-26T17:26:07.314Z,47.62
2023-03-26T17:28:50.986Z,47.81
2023-03-26T17:31:31.989Z,47.57
2023-03-26T17:34:51.182Z,47.90
2023-03-26T17:37:22.610Z,48.16
2023-03-26T17:39:51.221Z,48.15
2023-03-26T17:42:27.736Z,47.92
2023-03-26T17:44:58.650Z,48.00
2023-03-26T17:47:40.347Z,48.63
2023-03-26T17:50:13.628Z,48.55
2023-03-26T17:52:48.791Z,48.19
2023-03-26T17:55:22.041Z,48.14
2023-03-26T17:58:20.660Z,48.03
2023-03-26T18:01:14.796Z,48.46
2023-03-26T18:03:51.545Z,48.09
2023-03-26T18:06:55.798Z,48.30
2023-03-26T18:09:54.598Z,49.31
2023-03-26T18:13:12.665Z,48.58
2023-03-26T18:15:50.879Z,48.69
2023-03-26T18:18:40.667Z,49.17
2023-03-26T18:21:21.248Z,49.79
2023-03-26T18:23:51.383Z,49.76
2023-03-26T18:26:39.810Z,49.71
2023-03-26T18:29:28.920Z,49.75
2023-03-26T18:32:04.229Z,49.74
2023-03-26T18:34:36.691Z,50.09
2023-03-26T18:37:12.711Z,49.23
2023-03-26T18:39:43.764Z,49.42
2023-03-26T18:42:22.559Z,49.39
2023-03-26T18:44:59.706Z,49.37
2023-03-26T18:47:39.191Z,49.24
2023-03-26T18:50:40.242Z,48.80
2023-03-26T18:53:19.036Z,48.93
2023-03-26T18:55:55.214Z,48.76
2023-03-26T18:58:41.287Z,48.76
2023-03-26T19:01:20.248Z,48.68
2023-03-26T19:03:54.361Z,48.44
2023-03-26T19:06:24.025Z,50.37
2023-03-26T19:08:55.365Z,48.75
2023-03-26T19:11:26.860Z,49.78
2023-03-26T19:14:29.504Z,50.80
2023-03-26T19:17:05.447Z,51.82
2023-03-26T19:19:38.085Z,52.09
2023-03-26T19:22:09.455Z,52.16
2023-03-26T19:24:39.551Z,53.16
2023-03-26T19:27:10.259Z,52.81
2023-03-26T19:29:40.018Z,52.15
2023-03-26T19:32:22.602Z,52.03
2023-03-26T19:34:52.978Z,50.66
2023-03-26T19:37:28.648Z,51.05
2023-03-26T19:40:22.037Z,51.61
2023-03-26T19:42:51.310Z,52.18
2023-03-26T19:45:26.438Z,52.07
2023-03-26T19:48:07.753Z,52.92
2023-03-26T19:50:53.366Z,51.53
2023-03-26T19:53:34.310Z,51.23
2023-03-26T19:56:14.047Z,51.26
2023-03-26T19:58:43.671Z,52.38
2023-03-26T20:01:21.699Z,52.30
2023-03-26T20:04:06.929Z,51.14
2023-03-26T20:06:43.853Z,50.92
2023-03-26T20:09:16.577Z,52.48
2023-03-26T20:11:47.201Z,52.22
2023-03-26T20:14:26.448Z,52.70
2023-03-26T20:17:02.361Z,54.06
2023-03-26T20:19:31.319Z,53.79
2023-03-26T20:21:59.458Z,53.52
2023-03-26T20:24:27.835Z,54.32
2023-03-26T20:26:56.950Z,54.23
2023-03-26T20:29:25.248Z,54.73
2023-03-26T20:31:52.975Z,55.54
2023-03-26T20:34:25.056Z,54.80
2023-03-26T20:36:56.195Z,55.35
2023-03-26T20:39:25.674Z,55.91
2023-03-26T20:41:54.964Z,56.47
2023-03-26T20:44:27.343Z,57.63
2023-03-26T20:46:56.632Z,57.48
2023-03-26T20:49:25.684Z,57.04
2023-03-26T20:51:55.033Z,57.71
2023-03-26T20:54:25.267Z,57.84
2023-03-26T20:56:54.325Z,59.28
2023-03-26T20:59:26.901Z,58.53
2023-03-26T21:01:56.810Z,59.98
2023-03-26T21:04:25.074Z,59.43
2023-03-26T21:06:57.566Z,57.89
2023-03-26T21:09:35.482Z,57.88
2023-03-26T21:12:05.833Z,57.60
2023-03-26T21:14:44.342Z,57.23
2023-03-26T21:17:20.739Z,57.34
2023-03-26T21:19:49.295Z,57.31
2023-03-26T21:22:32.116Z,59.09
2023-03-26T21:25:15.404Z,59.21
2023-03-26T21:28:42.496Z,61.72
2023-03-26T21:31:18.651Z,60.93
2023-03-26T21:33:47.877Z,68.76
2023-03-26T21:36:18.101Z,79.54
2023-03-26T21:38:46.064Z,85.06
2023-03-26T21:41:27.063Z,93.49
2023-03-26T21:43:54.738Z,100.00
2023-03-26T21:46:22.228Z,100.00
2023-03-26T21:48:49.598Z,100.00
2023-03-26T21:51:21.227Z,100.00
2023-03-26T21:53:49.024Z,100.00
2023-03-26T21:56:35.597Z,100.00
2023-03-26T21:59:08.902Z,100.00
2023-03-26T22:01:47.834Z,100.00
2023-03-26T22:04:31.629Z,100.00
2023-03-26T22:07:10.269Z,100.00
2023-03-26T22:09:38.144Z,100.00
2023-03-26T22:12:05.856Z,100.00
2023-03-26T22:14:33.814Z,100.00
2023-03-26T22:17:01.236Z,100.00
2023-03-26T22:19:30.285Z,100.00
2023-03-26T22:22:01.494Z,100.00
2023-03-26T22:24:29.225Z,100.00
2023-03-26T22:26:56.650Z,100.00
2023-03-26T22:29:23.918Z,100.00
2023-03-26T22:31:51.632Z,100.00
2023-03-26T22:34:19.773Z,100.00
2023-03-26T22:36:46.942Z,100.00
2023-03-26T22:39:14.397Z,100.00
2023-03-26T22:41:41.698Z,100.00
2023-03-26T22:44:19.837Z,100.00
2023-03-26T22:46:51.488Z,100.00
2023-03-26T22:49:18.986Z,100.00
2023-03-26T22:51:50.393Z,100.00
2023-03-26T22:54:18.343Z,100.00
2023-03-26T22:56:45.900Z,100.00
2023-03-26T22:59:13.317Z,100.00
2023-03-26T23:01:41.559Z,100.00
2023-03-26T23:04:08.766Z,100.00
2023-03-26T23:06:35.916Z,100.00
2023-03-26T23:09:03.911Z,100.00
2023-03-26T23:11:31.204Z,100.00
2023-03-26T23:13:58.460Z,100.00
2023-03-26T23:16:26.574Z,100.00
2023-03-26T23:18:53.723Z,100.00
2023-03-26T23:21:21.846Z,100.00
2023-03-26T23:23:52.234Z,100.00
2023-03-26T23:26:19.605Z,100.00
2023-03-26T23:28:46.855Z,100.00
2023-03-26T23:31:14.368Z,100.00
2023-03-26T23:33:50.274Z,100.00
2023-03-26T23:36:19.329Z,100.00
2023-03-26T23:38:48.289Z,100.00
2023-03-26T23:41:17.653Z,100.00
2023-03-26T23:43:53.936Z,100.00
2023-03-26T23:46:30.951Z,100.00
2023-03-26T23:49:00.124Z,100.00
2023-03-26T23:51:31.930Z,100.00
2023-03-26T23:54:00.284Z,100.00
2023-03-26T23:56:27.830Z,100.00
2023-03-26T23:58:55.306Z,100.00
